createdAt,value
2022-10-19T00:02:19.613Z,99.90
2022-10-19T00:04:46.725Z,99.90
2022-10-19T00:07:13.780Z,99.90
2022-10-19T00:09:42.898Z,99.90
2022-10-19T00:12:10.039Z,99.90
2022-10-19T00:14:37.124Z,99.90
2022-10-19T00:17:04.503Z,99.90
2022-10-19T00:19:31.748Z,99.90
2022-10-19T00:21:58.913Z,99.90
2022-10-19T00:24:26.115Z,99.90
2022-10-19T00:26:53.268Z,99.90
2022-10-19T00:29:20.436Z,99.90
2022-10-19T00:31:49.264Z,99.90
2022-10-19T00:34:16.793Z,99.90
2022-10-19T00:36:44.159Z,99.90
2022-10-19T00:39:12.979Z,99.90
2022-10-19T00:41:40.785Z,99.90
2022-10-19T00:44:13.826Z,99.90
2022-10-19T00:46:42.715Z,99.90
2022-10-19T00:49:13.249Z,99.90
2022-10-19T00:51:42.503Z,99.90
2022-10-19T00:54:10.165Z,99.90
2022-10-19T00:56:39.787Z,99.90
2022-10-19T00:59:08.059Z,99.90
2022-10-19T01:01:35.317Z,99.90
2022-10-19T01:04:03.210Z,99.90
2022-10-19T01:06:30.730Z,99.90
2022-10-19T01:08:57.844Z,99.90
2022-10-19T01:11:42.988Z,99.90
2022-10-19T01:14:28.921Z,99.90
2022-10-19T01:17:02.212Z,99.90
2022-10-19T01:19:44.711Z,99.90
2022-10-19T01:22:11.825Z,99.90
2022-10-19T01:24:40.683Z,99.90
2022-10-19T01:27:14.057Z,99.90
2022-10-19T01:29:41.632Z,99.90
2022-10-19T01:32:08.750Z,99.90
2022-10-19T01:34:44.160Z,99.90
2022-10-19T01:37:17.047Z,99.90
2022-10-19T01:39:50.030Z,99.90
2022-10-19T01:42:17.165Z,99.90
2022-10-19T01:44:50.876Z,99.90
2022-10-19T01:47:26.800Z,99.90
2022-10-19T01:49:56.458Z,99.90
2022-10-19T01:52:27.377Z,99.90
2022-10-19T01:54:57.540Z,99.90
2022-10-19T01:57:27.202Z,99.90
2022-10-19T01:59:54.768Z,99.90
2022-10-19T02:02:22.366Z,99.90
2022-10-19T02:04:50.204Z,99.90
2022-10-19T02:07:18.776Z,99.90
2022-10-19T02:09:45.815Z,99.90
2022-10-19T02:12:13.604Z,99.90
2022-10-19T02:14:42.491Z,99.90
2022-10-19T02:17:11.481Z,99.90
2022-10-19T02:19:38.909Z,99.90
2022-10-19T02:22:06.782Z,99.90
2022-10-19T02:24:33.929Z,99.90
2022-10-19T02:27:02.041Z,99.90
2022-10-19T02:29:29.161Z,99.90
2022-10-19T02:31:56.258Z,99.90
2022-10-19T02:34:23.451Z,99.90
2022-10-19T02:36:50.887Z,99.90
2022-10-19T02:39:18.079Z,99.90
2022-10-19T02:42:03.859Z,99.90
2022-10-19T02:44:47.438Z,99.90
2022-10-19T02:47:19.524Z,99.90
2022-10-19T02:49:46.919Z,99.90
2022-10-19T02:52:14.559Z,99.90
2022-10-19T02:54:43.051Z,99.90
2022-10-19T02:57:20.553Z,99.90
2022-10-19T02:59:47.955Z,99.90
2022-10-19T03:02:15.882Z,99.90
2022-10-19T03:04:45.013Z,99.90
2022-10-19T03:07:15.189Z,99.90
2022-10-19T03:09:42.773Z,99.90
2022-10-19T03:12:10.562Z,99.90
2022-10-19T03:14:37.749Z,99.90
2022-10-19T03:17:05.260Z,99.90
2022-10-19T03:19:32.387Z,99.90
2022-10-19T03:21:59.567Z,99.90
2022-10-19T03:24:26.754Z,99.90
2022-10-19T03:26:54.056Z,99.90
2022-10-19T03:29:21.254Z,99.90
2022-10-19T03:31:48.701Z,99.90
2022-10-19T03:34:16.305Z,99.90
2022-10-19T03:36:43.510Z,99.90
2022-10-19T03:39:12.122Z,99.90
2022-10-19T03:41:39.354Z,99.90
2022-10-19T03:44:07.391Z,99.90
2022-10-19T03:46:34.677Z,99.90
2022-10-19T03:49:02.632Z,99.90
2022-10-19T03:51:30.541Z,99.90
2022-10-19T03:54:02.100Z,99.90
2022-10-19T03:56:30.161Z,99.90
2022-10-19T03:58:58.103Z,99.90
2022-10-19T04:01:44.960Z,99.90
2022-10-19T04:04:13.781Z,99.90
2022-10-19T04:06:42.121Z,99.90
2022-10-19T04:09:10.182Z,99.90
2022-10-19T04:11:38.050Z,99.90
2022-10-19T04:14:05.314Z,99.90
2022-10-19T04:16:32.926Z,99.90
2022-10-19T04:19:00.416Z,99.90
2022-10-19T04:21:27.482Z,99.90
2022-10-19T04:23:57.920Z,99.90
2022-10-19T04:26:24.928Z,99.90
2022-10-19T04:28:51.999Z,99.90
2022-10-19T04:31:19.325Z,99.90
2022-10-19T04:36:18.543Z,99.90
2022-10-19T04:38:45.599Z,99.90
2022-10-19T04:41:14.299Z,99.90
2022-10-19T04:43:41.480Z,99.90
2022-10-19T04:46:09.882Z,99.90
2022-10-19T04:48:37.765Z,99.90
2022-10-19T04:51:05.623Z,99.90
2022-10-19T04:53:33.553Z,99.90
2022-10-19T04:56:00.892Z,99.90
2022-10-19T04:58:27.978Z,99.90
2022-10-19T05:00:55.121Z,99.90
2022-10-19T05:03:22.224Z,99.90
2022-10-19T05:05:49.272Z,99.90
2022-10-19T05:08:16.581Z,99.90
2022-10-19T05:10:46.995Z,99.90
2022-10-19T05:13:15.018Z,99.90
2022-10-19T05:15:42.048Z,99.90
2022-10-19T05:18:09.264Z,99.90
2022-10-19T05:20:36.455Z,99.90
2022-10-19T05:23:06.371Z,99.90
2022-10-19T05:25:34.352Z,99.90
2022-10-19T05:28:01.398Z,99.90
2022-10-19T05:30:28.438Z,99.90
2022-10-19T05:32:55.596Z,99.90
2022-10-19T05:35:22.923Z,99.90
2022-10-19T05:37:54.200Z,99.90
2022-10-19T05:40:21.372Z,99.90
2022-10-19T05:42:48.417Z,99.90
2022-10-19T05:45:15.433Z,99.90
2022-10-19T05:47:42.558Z,99.90
2022-10-19T05:50:09.722Z,99.90
2022-10-19T05:52:36.809Z,99.90
2022-10-19T05:55:04.040Z,99.90
2022-10-19T05:57:33.100Z,99.90
2022-10-19T06:00:00.539Z,99.90
2022-10-19T06:02:27.562Z,99.90
2022-10-19T06:04:54.709Z,99.90
2022-10-19T06:07:21.763Z,99.90
2022-10-19T06:09:48.807Z,99.90
2022-10-19T06:12:16.426Z,99.90
2022-10-19T06:14:43.726Z,99.90
2022-10-19T06:17:11.045Z,99.90
2022-10-19T06:19:38.176Z,99.90
2022-10-19T06:22:05.268Z,99.90
2022-10-19T06:24:32.339Z,99.90
2022-10-19T06:26:59.368Z,99.90
2022-10-19T06:29:26.471Z,99.90
2022-10-19T06:31:54.740Z,99.90
2022-10-19T06:34:22.064Z,99.90
2022-10-19T06:36:49.174Z,99.90
2022-10-19T06:39:16.338Z,99.90
2022-10-19T06:41:43.342Z,99.90
2022-10-19T06:44:10.439Z,99.90
2022-10-19T06:46:37.553Z,99.90
2022-10-19T06:49:04.659Z,99.90
2022-10-19T06:51:34.244Z,99.90
2022-10-19T06:54:01.503Z,99.90
2022-10-19T06:56:28.573Z,99.90
2022-10-19T06:58:56.092Z,99.90
2022-10-19T07:01:23.657Z,99.90
2022-10-19T07:03:51.962Z,99.90
2022-10-19T07:06:19.474Z,99.90
2022-10-19T07:08:46.578Z,99.90
2022-10-19T07:11:17.806Z,99.90
2022-10-19T07:13:44.937Z,99.90
2022-10-19T07:16:16.184Z,99.90
2022-10-19T07:18:47.177Z,99.90
2022-10-19T07:21:15.244Z,99.90
2022-10-19T07:23:43.603Z,99.90
2022-10-19T07:26:15.158Z,99.90
2022-10-19T07:28:43.272Z,99.90
2022-10-19T07:31:12.398Z,99.90
2022-10-19T07:33:39.635Z,99.90
2022-10-19T07:36:08.539Z,99.90
2022-10-19T07:38:35.762Z,99.90
2022-10-19T07:41:05.929Z,99.90
2022-10-19T07:43:33.133Z,99.90
2022-10-19T07:46:01.271Z,99.90
2022-10-19T07:48:28.551Z,99.90
2022-10-19T07:50:55.928Z,99.90
2022-10-19T07:53:23.074Z,99.90
2022-10-19T07:55:50.392Z,99.90
2022-10-19T07:58:17.515Z,99.90
2022-10-19T08:00:44.641Z,99.90
2022-10-19T08:06:02.562Z,99.90
2022-10-19T08:08:30.014Z,99.90
2022-10-19T08:10:57.411Z,99.90
2022-10-19T08:13:24.484Z,99.90
2022-10-19T08:15:51.805Z,98.70
2022-10-19T08:18:18.891Z,97.90
2022-10-19T08:20:46.071Z,97.10
2022-10-19T08:23:13.092Z,96.50
2022-10-19T08:25:40.270Z,97.20
2022-10-19T08:28:07.347Z,97.90
2022-10-19T08:30:35.380Z,99.50
2022-10-19T08:33:03.298Z,99.80
2022-10-19T08:35:31.456Z,99.90
2022-10-19T08:37:59.064Z,99.80
2022-10-19T08:40:30.055Z,99.90
2022-10-19T08:43:03.156Z,99.90
2022-10-19T08:45:42.707Z,99.90
2022-10-19T08:48:33.387Z,99.90
2022-10-19T08:51:01.199Z,99.90
2022-10-19T08:53:44.175Z,99.90
2022-10-19T08:56:45.652Z,99.90
2022-10-19T08:59:21.835Z,99.90
2022-10-19T09:01:48.908Z,99.90
2022-10-19T09:04:27.984Z,99.90
2022-10-19T09:07:04.221Z,99.90
2022-10-19T09:09:32.079Z,99.90
2022-10-19T09:12:03.646Z,99.90
2022-10-19T09:14:33.619Z,99.90
2022-10-19T09:17:02.815Z,99.90
2022-10-19T09:19:32.182Z,99.90
2022-10-19T09:22:08.750Z,99.90
2022-10-19T09:24:43.037Z,99.90
2022-10-19T09:27:21.785Z,99.90
2022-10-19T09:29:59.153Z,99.90
2022-10-19T09:32:28.890Z,99.90
2022-10-19T09:35:02.628Z,99.90
2022-10-19T09:40:02.257Z,99.90
2022-10-19T09:42:30.676Z,99.90
2022-10-19T09:44:59.552Z,99.90
2022-10-19T09:47:33.793Z,99.90
2022-10-19T09:50:09.191Z,99.90
2022-10-19T09:52:38.214Z,99.90
2022-10-19T09:55:05.251Z,99.90
2022-10-19T09:57:32.648Z,99.90
2022-10-19T10:00:00.304Z,99.90
2022-10-19T10:02:34.193Z,99.90
2022-10-19T10:05:13.496Z,99.90
2022-10-19T10:07:40.780Z,99.90
2022-10-19T10:10:28.250Z,99.90
2022-10-19T10:13:00.803Z,99.90
2022-10-19T10:15:29.436Z,99.90
2022-10-19T10:17:57.428Z,99.90
2022-10-19T10:20:28.030Z,99.90
2022-10-19T10:22:57.911Z,99.90
2022-10-19T10:25:26.993Z,99.90
2022-10-19T10:28:17.085Z,99.90
2022-10-19T10:30:45.830Z,99.90
2022-10-19T10:33:43.840Z,99.90
2022-10-19T10:36:12.626Z,99.90
2022-10-19T10:38:41.505Z,99.90
2022-10-19T10:41:14.009Z,99.90
2022-10-19T10:46:34.176Z,99.90
2022-10-19T10:49:05.291Z,99.90
2022-10-19T10:51:39.269Z,99.90
2022-10-19T10:54:17.107Z,99.90
2022-10-19T10:56:45.260Z,98.50
2022-10-19T10:59:25.823Z,97.60
2022-10-19T11:02:13.319Z,96.40
2022-10-19T11:04:42.806Z,92.40
2022-10-19T11:07:17.911Z,92.40
2022-10-19T11:09:48.523Z,90.70
2022-10-19T11:12:17.306Z,90.60
2022-10-19T11:14:44.788Z,91.80
2022-10-19T11:17:18.651Z,92.60
2022-10-19T11:19:46.128Z,94.90
2022-10-19T11:22:22.400Z,96.50
2022-10-19T11:25:04.554Z,96.30
2022-10-19T11:27:43.734Z,94.20
2022-10-19T11:30:16.836Z,91.80
2022-10-19T11:32:53.371Z,90.50
2022-10-19T11:35:32.942Z,90.00
2022-10-19T11:38:18.776Z,82.90
2022-10-19T11:44:11.349Z,82.40
2022-10-19T11:47:03.018Z,84.40
2022-10-19T11:49:36.392Z,90.70
2022-10-19T11:52:03.418Z,93.30
2022-10-19T11:54:45.583Z,93.60
2022-10-19T11:57:16.560Z,95.30
2022-10-19T11:59:52.473Z,96.20
2022-10-19T12:02:39.853Z,96.50
2022-10-19T12:05:13.099Z,96.50
2022-10-19T12:07:47.194Z,95.70
2022-10-19T12:10:27.479Z,95.90
2022-10-19T12:12:59.892Z,95.40
2022-10-19T12:15:40.713Z,95.20
2022-10-19T12:18:15.269Z,95.80
2022-10-19T12:20:48.375Z,96.80
2022-10-19T12:23:33.452Z,97.80
2022-10-19T12:26:02.477Z,97.10
2022-10-19T12:28:31.509Z,95.70
2022-10-19T12:31:00.004Z,96.00
2022-10-19T12:33:31.254Z,96.60
2022-10-19T12:36:17.765Z,96.50
2022-10-19T12:39:03.882Z,95.80
2022-10-19T12:41:37.401Z,96.60
2022-10-19T12:44:11.027Z,97.50
2022-10-19T12:46:47.005Z,97.90
2022-10-19T12:49:30.969Z,97.20
2022-10-19T12:51:59.771Z,96.20
2022-10-19T12:54:30.732Z,97.40
2022-10-19T12:56:59.344Z,97.90
2022-10-19T12:59:29.782Z,97.10
2022-10-19T13:01:59.361Z,96.50
2022-10-19T13:04:32.194Z,97.50
2022-10-19T13:07:11.146Z,95.30
2022-10-19T13:09:43.118Z,94.80
2022-10-19T13:12:21.297Z,92.70
2022-10-19T13:14:55.530Z,90.40
2022-10-19T13:17:22.843Z,86.30
2022-10-19T13:19:50.511Z,89.20
2022-10-19T13:22:26.185Z,91.90
2022-10-19T13:25:13.602Z,92.60
2022-10-19T13:27:40.724Z,92.80
2022-10-19T13:30:28.145Z,93.50
2022-10-19T13:32:55.698Z,94.20
2022-10-19T13:35:35.908Z,94.60
2022-10-19T13:38:21.879Z,93.60
2022-10-19T13:40:49.772Z,93.90
2022-10-19T13:43:22.224Z,92.90
2022-10-19T13:45:59.077Z,94.70
2022-10-19T13:48:32.307Z,94.90
2022-10-19T13:51:05.495Z,96.30
2022-10-19T13:53:40.979Z,97.00
2022-10-19T13:56:19.255Z,96.80
2022-10-19T13:58:58.752Z,97.00
2022-10-19T14:01:36.227Z,96.90
2022-10-19T14:04:05.563Z,97.00
2022-10-19T14:06:36.485Z,97.50
2022-10-19T14:09:30.700Z,97.50
2022-10-19T14:12:28.070Z,98.50
2022-10-19T14:14:55.992Z,98.30
2022-10-19T14:17:26.488Z,98.90
2022-10-19T14:19:57.396Z,98.30
2022-10-19T14:22:33.627Z,97.70
2022-10-19T14:25:06.191Z,99.00
2022-10-19T14:27:34.347Z,99.30
2022-10-19T14:30:02.600Z,99.50
2022-10-19T14:32:30.482Z,99.70
2022-10-19T14:35:06.117Z,99.10
2022-10-19T14:37:33.956Z,99.50
2022-10-19T14:40:03.628Z,99.90
2022-10-19T14:42:38.250Z,99.90
2022-10-19T14:45:07.108Z,99.90
2022-10-19T14:47:34.379Z,99.90
2022-10-19T14:50:03.224Z,99.90
2022-10-19T14:52:37.499Z,99.90
2022-10-19T14:55:12.738Z,99.90
2022-10-19T14:57:43.823Z,99.90
2022-10-19T15:02:59.416Z,99.90
2022-10-19T15:05:28.315Z,99.90
2022-10-19T15:07:55.716Z,99.90
2022-10-19T15:10:35.633Z,99.90
2022-10-19T15:13:05.432Z,99.90
2022-10-19T15:15:34.552Z,99.90
2022-10-19T15:18:02.078Z,99.90
2022-10-19T15:20:44.290Z,99.90
2022-10-19T15:23:28.879Z,99.90
2022-10-19T15:26:00.354Z,99.90
2022-10-19T15:28:41.393Z,99.90
2022-10-19T15:31:28.376Z,99.90
2022-10-19T15:33:59.920Z,99.90
2022-10-19T15:36:27.667Z,99.90
2022-10-19T15:39:33.075Z,99.90
2022-10-19T15:42:23.921Z,99.90
2022-10-19T15:44:51.401Z,99.90
2022-10-19T15:47:20.211Z,99.90
2022-10-19T15:49:56.061Z,99.90
2022-10-19T15:52:24.503Z,99.90
2022-10-19T15:54:52.597Z,99.90
2022-10-19T15:57:25.498Z,99.90
2022-10-19T15:59:52.713Z,99.90
2022-10-19T16:02:19.926Z,99.90
2022-10-19T16:04:47.009Z,99.90
2022-10-19T16:07:16.917Z,99.90
2022-10-19T16:09:44.079Z,99.90
2022-10-19T16:12:11.829Z,99.90
2022-10-19T16:14:39.062Z,99.90
2022-10-19T16:17:06.158Z,99.90
2022-10-19T16:19:33.180Z,99.90
2022-10-19T16:22:00.405Z,99.90
2022-10-19T16:24:27.897Z,99.90
2022-10-19T16:26:54.936Z,99.90
2022-10-19T16:29:25.371Z,99.90
2022-10-19T16:31:55.137Z,99.90
2022-10-19T16:34:22.346Z,99.90
2022-10-19T16:36:49.929Z,99.90
2022-10-19T16:39:17.148Z,99.90
2022-10-19T16:41:44.616Z,99.90
2022-10-19T16:44:12.708Z,99.90
2022-10-19T16:46:39.786Z,99.90
2022-10-19T16:49:06.996Z,99.90
2022-10-19T16:51:36.065Z,99.90
2022-10-19T16:54:04.245Z,99.90
2022-10-19T16:56:31.574Z,99.90
2022-10-19T16:59:06.429Z,99.90
2022-10-19T17:01:34.616Z,99.90
2022-10-19T17:04:02.218Z,99.90
2022-10-19T17:06:29.463Z,99.90
2022-10-19T17:11:45.190Z,99.90
2022-10-19T17:14:13.024Z,99.90
2022-10-19T17:16:40.350Z,99.90
2022-10-19T17:19:08.797Z,99.90
2022-10-19T17:21:39.803Z,99.90
2022-10-19T17:24:08.185Z,99.90
2022-10-19T17:26:39.407Z,99.90
2022-10-19T17:29:07.123Z,99.90
2022-10-19T17:31:34.906Z,99.90
2022-10-19T17:34:02.483Z,99.90
2022-10-19T17:36:30.986Z,99.90
2022-10-19T17:39:02.539Z,99.90
2022-10-19T17:41:30.192Z,99.90
2022-10-19T17:43:57.702Z,99.90
2022-10-19T17:46:26.972Z,99.90
2022-10-19T17:48:54.913Z,99.90
2022-10-19T17:51:29.636Z,99.90
2022-10-19T17:53:58.155Z,99.90
2022-10-19T17:56:25.724Z,99.90
2022-10-19T17:58:53.261Z,99.90
2022-10-19T18:01:21.565Z,99.90
2022-10-19T18:03:49.632Z,99.90
2022-10-19T18:06:24.861Z,99.90
2022-10-19T18:08:53.420Z,99.90
2022-10-19T18:11:28.678Z,99.90
2022-10-19T18:13:57.599Z,99.90
2022-10-19T18:16:29.936Z,99.90
2022-10-19T18:18:58.407Z,99.90
2022-10-19T18:21:27.986Z,99.90
2022-10-19T18:23:56.301Z,99.90
2022-10-19T18:26:24.470Z,99.90
2022-10-19T18:28:52.769Z,99.90
2022-10-19T18:31:19.945Z,99.90
2022-10-19T18:33:47.803Z,99.90
2022-10-19T18:36:15.240Z,99.90
2022-10-19T18:38:42.457Z,99.90
2022-10-19T18:43:41.772Z,99.90
2022-10-19T18:46:09.630Z,99.90
2022-10-19T18:48:38.429Z,99.90
2022-10-19T18:51:07.543Z,99.90
2022-10-19T18:53:35.333Z,99.90
2022-10-19T18:56:06.745Z,99.90
2022-10-19T18:58:34.083Z,99.90
2022-10-19T19:01:04.521Z,99.90
2022-10-19T19:03:31.629Z,99.90
2022-10-19T19:05:59.494Z,99.90
2022-10-19T19:08:27.169Z,99.90
2022-10-19T19:10:54.691Z,99.90
2022-10-19T19:13:22.228Z,99.90
2022-10-19T19:15:59.073Z,99.90
2022-10-19T19:18:26.316Z,99.90
2022-10-19T19:20:53.524Z,99.90
2022-10-19T19:23:20.727Z,99.90
2022-10-19T19:25:48.329Z,99.90
2022-10-19T19:28:15.376Z,99.90
2022-10-19T19:30:43.589Z,99.90
2022-10-19T19:33:11.045Z,99.90
2022-10-19T19:35:44.992Z,99.90
2022-10-19T19:38:12.963Z,99.90
2022-10-19T19:40:41.336Z,99.90
2022-10-19T19:43:09.120Z,99.90
2022-10-19T19:45:36.630Z,99.90
2022-10-19T19:48:04.441Z,99.90
2022-10-19T19:50:32.488Z,99.90
2022-10-19T19:52:59.650Z,99.90
2022-10-19T19:55:27.210Z,99.90
2022-10-19T19:57:54.810Z,99.90
2022-10-19T20:00:22.413Z,99.90
2022-10-19T20:02:53.396Z,99.90
2022-10-19T20:05:20.761Z,99.90
2022-10-19T20:07:47.879Z,99.90
2022-10-19T20:10:18.322Z,99.90
2022-10-19T20:12:46.589Z,99.90
2022-10-19T20:15:14.762Z,99.90
2022-10-19T20:17:42.457Z,99.90
2022-10-19T20:20:10.311Z,99.90
2022-10-19T20:22:37.882Z,99.90
2022-10-19T20:25:05.311Z,99.90
2022-10-19T20:27:35.910Z,99.90
2022-10-19T20:30:03.581Z,99.90
2022-10-19T20:32:31.517Z,99.90
2022-10-19T20:34:58.878Z,99.90
2022-10-19T20:37:26.837Z,99.90
2022-10-19T20:39:53.924Z,99.90
2022-10-19T20:42:22.040Z,99.90
2022-10-19T20:44:49.239Z,99.90
2022-10-19T20:47:16.450Z,99.90
2022-10-19T20:49:43.545Z,99.90
2022-10-19T20:52:10.601Z,99.90
2022-10-19T20:54:37.706Z,99.90
2022-10-19T20:57:04.905Z,99.90
2022-10-19T20:59:33.521Z,99.90
2022-10-19T21:02:00.731Z,99.90
2022-10-19T21:04:28.011Z,99.90
2022-10-19T21:06:55.231Z,99.90
2022-10-19T21:09:23.556Z,99.90
2022-10-19T21:11:51.749Z,99.90
2022-10-19T21:14:26.956Z,99.90
2022-10-19T21:16:58.270Z,99.90
2022-10-19T21:19:26.390Z,99.90
2022-10-19T21:21:57.673Z,99.90
2022-10-19T21:24:26.780Z,99.90
2022-10-19T21:26:53.856Z,99.90
2022-10-19T21:29:21.346Z,99.90
2022-10-19T21:31:49.487Z,99.90
2022-10-19T21:34:19.333Z,99.90
2022-10-19T21:36:46.865Z,99.90
2022-10-19T21:39:14.061Z,99.90
2022-10-19T21:41:41.272Z,99.90
2022-10-19T21:44:08.671Z,99.90
2022-10-19T21:46:35.730Z,99.90
2022-10-19T21:49:02.933Z,99.90
2022-10-19T21:51:32.410Z,99.90
2022-10-19T21:53:59.574Z,99.90
2022-10-19T21:56:26.861Z,99.90
2022-10-19T21:58:54.451Z,99.90
2022-10-19T22:01:23.079Z,99.90
2022-10-19T22:03:50.587Z,99.90
2022-10-19T22:06:17.628Z,99.90
2022-10-19T22:08:45.667Z,99.90
2022-10-19T22:11:14.010Z,99.90
2022-10-19T22:13:41.160Z,99.90
2022-10-19T22:16:10.963Z,99.90
2022-10-19T22:18:38.229Z,99.90
2022-10-19T22:21:12.826Z,99.90
2022-10-19T22:23:40.096Z,99.90
2022-10-19T22:26:18.116Z,99.90
2022-10-19T22:28:45.391Z,99.90
2022-10-19T22:31:12.792Z,99.90
2022-10-19T22:33:40.007Z,99.90
2022-10-19T22:36:08.372Z,99.90
2022-10-19T22:38:36.192Z,99.90
2022-10-19T22:41:40.331Z,99.90
2022-10-19T22:44:27.186Z,99.90
2022-10-19T22:46:54.434Z,99.90
2022-10-19T22:49:21.527Z,99.90
2022-10-19T22:51:48.705Z,99.90
2022-10-19T22:54:15.819Z,99.90
2022-10-19T22:56:43.156Z,99.90
2022-10-19T22:59:10.230Z,99.90
2022-10-19T23:01:37.355Z,99.90
2022-10-19T23:04:04.574Z,99.90
2022-10-19T23:06:31.623Z,99.90
2022-10-19T23:08:58.710Z,99.90
2022-10-19T23:11:26.019Z,99.90
2022-10-19T23:13:53.159Z,99.90
2022-10-19T23:16:20.499Z,99.90
2022-10-19T23:18:47.858Z,99.90
2022-10-19T23:21:15.178Z,99.90
2022-10-19T23:23:42.682Z,99.90
2022-10-19T23:26:12.192Z,99.90
2022-10-19T23:28:40.662Z,99.90
2022-10-19T23:31:12.734Z,99.90
2022-10-19T23:33:40.115Z,99.90
2022-10-19T23:36:14.897Z,99.90
2022-10-19T23:38:42.975Z,99.90
2022-10-19T23:41:10.439Z,99.90
2022-10-19T23:43:37.835Z,99.90
2022-10-19T23:46:04.971Z,99.90
2022-10-19T23:48:32.513Z,99.90
2022-10-19T23:51:00.825Z,99.90
2022-10-19T23:53:28.582Z,99.90
2022-10-19T23:56:09.113Z,99.90
2022-10-19T23:58:36.207Z,99.90
